Overseas Luzon — V7NE5 — position and weather

sailwx.info

Track history (hours):
 
Tides and Currents Weather Stations Pressure Air Temp Water Temp Dewpoint Dewpoint Depression Visibility Wind Speed Wind Dir Waves Ship Positions

Overseas Luzon

Last reported at 2016-Sep-05 01:16 UTC. Time now 2016-Sep-25 22:32 UTC.
Position N 31°58' W 117°26'.
Warning: this ship's position is 20 days out of date.

Length 228 m; draft 8.7 m.

Type: Tanker. MMSI: 538002946.

Date/timePositionNaut miles runAvg speedWind from/ knotsBaromVisibWave heightAir tempDewpointWater temp
2016-Sep-05 01:16N 31°58' W 117°26'1114.5
2016-Sep-05 00:29N 32°09' W 117°29'1314.6
2016-Sep-04 23:33N 32°22' W 117°35'1414.3
2016-Sep-04 22:33N 32°35' W 117°40'1413.8
2016-Sep-04 21:33N 32°48' W 117°46'1414.2
2016-Sep-04 20:33N 33°00' W 117°55'1312.5
2016-Sep-04 19:33N 33°11' W 118°02'1111.3
2016-Sep-04 18:33N 33°21' W 118°07'1111.4
2016-Sep-04 17:33N 33°32' W 118°12'12 2.2
2016-Sep-04 12:12N 33°44' W 118°13'0 0.0
2016-Sep-04 07:30N 33°44' W 118°13'0 0.0
2016-Sep-04 01:33N 33°44' W 118°13'0 0.0
2016-Sep-03 18:21N 33°44' W 118°13'0 0.1
2016-Sep-03 17:27N 33°44' W 118°13'0 0.0
2016-Sep-03 16:18N 33°44' W 118°13'0 0.0
2016-Sep-03 15:33N 33°44' W 118°13'0 0.0
2016-Sep-03 14:33N 33°44' W 118°13'0 0.0
2016-Sep-03 13:33N 33°44' W 118°13'0 0.1
2016-Sep-03 12:30N 33°44' W 118°13'0 0.1
2016-Sep-03 11:33N 33°44' W 118°13'2 2.3
2016-Sep-03 10:34N 33°46' W 118°13'0 0.0
2016-Sep-02 09:24N 33°46' W 118°13'0 0.0
2016-Sep-01 11:21N 33°46' W 118°13'0 0.0
2016-Sep-01 10:33N 33°46' W 118°13'0 0.0
2016-Sep-01 05:30N 33°46' W 118°13'0 0.0
2016-Sep-01 04:33N 33°46' W 118°13'0 0.0
2016-Sep-01 03:15N 33°46' W 118°13'0 0.0
2016-Sep-01 00:33N 33°46' W 118°13'0 0.0
2016-Aug-31 22:15N 33°46' W 118°13'0 0.0
2016-Aug-31 21:30N 33°46' W 118°13'0 0.0
2016-Aug-31 20:33N 33°46' W 118°13'0 0.0
2016-Aug-31 19:27N 33°46' W 118°13'0 0.0
2016-Aug-31 09:30N 33°46' W 118°13'0 0.0
2016-Aug-31 06:27N 33°46' W 118°13'0 0.0
2016-Aug-31 05:33N 33°46' W 118°13'0 0.0
2016-Aug-31 03:12N 33°46' W 118°13'0 0.0
2016-Aug-31 01:33N 33°46' W 118°13'0 0.0
2016-Aug-31 00:33N 33°46' W 118°13'0 0.0
2016-Aug-30 23:33N 33°46' W 118°13'0 0.0
2016-Aug-30 22:29N 33°46' W 118°13'1 0.1
2016-Aug-30 09:29N 33°45' W 118°13'0 0.0
2016-Aug-30 08:23N 33°45' W 118°13'0 0.0
2016-Aug-30 03:29N 33°45' W 118°13'0 0.0
2016-Aug-29 23:29N 33°45' W 118°13'0 0.0
2016-Aug-29 21:26N 33°45' W 118°13'1 1.5
2016-Aug-29 20:33N 33°44' W 118°12'5 4.9
2016-Aug-29 19:33N 33°40' W 118°10'5 4.8
2016-Aug-29 18:33N 33°35' W 118°10'1111.0
2016-Aug-29 17:33N 33°24' W 118°05'1010.0
2016-Aug-29 16:33N 33°15' W 118°01'9 8.7
2016-Aug-29 15:33N 33°07' W 117°57'9 8.5
2016-Aug-29 14:33N 32°60' W 117°52'1313.1
2016-Aug-29 13:33N 32°47' W 117°46'1313.0
2016-Aug-29 12:33N 32°36' W 117°40'1313.0
2016-Aug-29 11:33N 32°24' W 117°32'1312.7
2016-Aug-29 10:33N 32°12' W 117°28'1212.2
2016-Aug-29 09:33N 32°00' W 117°28'2512.4
2016-Aug-29 07:31N 31°36' W 117°20'1412.2
2016-Aug-29 06:23N 31°22' W 117°16'  
Track history (hours):
 
Tides and Currents Weather Stations Pressure Air Temp Water Temp Dewpoint Dewpoint Depression Visibility Wind Speed Wind Dir Waves Ship Positions

Overseas Luzon

Last reported at 2016-Sep-05 01:16 UTC. Time now 2016-Sep-25 22:32 UTC.
Position N 31°58' W 117°26'.
Warning: this ship's position is 20 days out of date.

Length 228 m; draft 8.7 m.

Type: Tanker. MMSI: 538002946.

Date/timePositionNaut miles runAvg speedWind from/ knotsBaromVisibWave heightAir tempDewpointWater temp
2016-Sep-05 01:16N 31°58' W 117°26'1114.5
2016-Sep-05 00:29N 32°09' W 117°29'1314.6
2016-Sep-04 23:33N 32°22' W 117°35'1414.3
2016-Sep-04 22:33N 32°35' W 117°40'1413.8
2016-Sep-04 21:33N 32°48' W 117°46'1414.2
2016-Sep-04 20:33N 33°00' W 117°55'1312.5
2016-Sep-04 19:33N 33°11' W 118°02'1111.3
2016-Sep-04 18:33N 33°21' W 118°07'1111.4
2016-Sep-04 17:33N 33°32' W 118°12'12 2.2
2016-Sep-04 12:12N 33°44' W 118°13'0 0.0
2016-Sep-04 07:30N 33°44' W 118°13'0 0.0
2016-Sep-04 01:33N 33°44' W 118°13'0 0.0
2016-Sep-03 18:21N 33°44' W 118°13'0 0.1
2016-Sep-03 17:27N 33°44' W 118°13'0 0.0
2016-Sep-03 16:18N 33°44' W 118°13'0 0.0
2016-Sep-03 15:33N 33°44' W 118°13'0 0.0
2016-Sep-03 14:33N 33°44' W 118°13'0 0.0
2016-Sep-03 13:33N 33°44' W 118°13'0 0.1
2016-Sep-03 12:30N 33°44' W 118°13'0 0.1
2016-Sep-03 11:33N 33°44' W 118°13'2 2.3
2016-Sep-03 10:34N 33°46' W 118°13'0 0.0
2016-Sep-02 09:24N 33°46' W 118°13'0 0.0
2016-Sep-01 11:21N 33°46' W 118°13'0 0.0
2016-Sep-01 10:33N 33°46' W 118°13'0 0.0
2016-Sep-01 05:30N 33°46' W 118°13'0 0.0
2016-Sep-01 04:33N 33°46' W 118°13'0 0.0
2016-Sep-01 03:15N 33°46' W 118°13'0 0.0
2016-Sep-01 00:33N 33°46' W 118°13'0 0.0
2016-Aug-31 22:15N 33°46' W 118°13'0 0.0
2016-Aug-31 21:30N 33°46' W 118°13'0 0.0
2016-Aug-31 20:33N 33°46' W 118°13'0 0.0
2016-Aug-31 19:27N 33°46' W 118°13'0 0.0
2016-Aug-31 09:30N 33°46' W 118°13'0 0.0
2016-Aug-31 06:27N 33°46' W 118°13'0 0.0
2016-Aug-31 05:33N 33°46' W 118°13'0 0.0
2016-Aug-31 03:12N 33°46' W 118°13'0 0.0
2016-Aug-31 01:33N 33°46' W 118°13'0 0.0
2016-Aug-31 00:33N 33°46' W 118°13'0 0.0
2016-Aug-30 23:33N 33°46' W 118°13'0 0.0
2016-Aug-30 22:29N 33°46' W 118°13'1 0.1
2016-Aug-30 09:29N 33°45' W 118°13'0 0.0
2016-Aug-30 08:23N 33°45' W 118°13'0 0.0
2016-Aug-30 03:29N 33°45' W 118°13'0 0.0
2016-Aug-29 23:29N 33°45' W 118°13'0 0.0
2016-Aug-29 21:26N 33°45' W 118°13'1 1.5
2016-Aug-29 20:33N 33°44' W 118°12'5 4.9
2016-Aug-29 19:33N 33°40' W 118°10'5 4.8
2016-Aug-29 18:33N 33°35' W 118°10'1111.0
2016-Aug-29 17:33N 33°24' W 118°05'1010.0
2016-Aug-29 16:33N 33°15' W 118°01'9 8.7
2016-Aug-29 15:33N 33°07' W 117°57'9 8.5
2016-Aug-29 14:33N 32°60' W 117°52'1313.1
2016-Aug-29 13:33N 32°47' W 117°46'1313.0
2016-Aug-29 12:33N 32°36' W 117°40'1313.0
2016-Aug-29 11:33N 32°24' W 117°32'1312.7
2016-Aug-29 10:33N 32°12' W 117°28'1212.2
2016-Aug-29 09:33N 32°00' W 117°28'2512.4
2016-Aug-29 07:31N 31°36' W 117°20'1412.2
2016-Aug-29 06:23N 31°22' W 117°16'  

Dump ship's entire track history